Tropical Cyclones
[Index]
Main Index Home Page Stock Weather Photos Extreme Storms Discussion Storm News and Storm Chasing Reports Tropical Cyclones / Hurricanes / Typhoons Weather Data and Links Wild Fires / Bushfires Weather Observation Techniques Weather Picture Catalogue Tornado Pictures and Reports Stock Video Footage and DVDs for sale
Season 1980-1981 Tropical Cyclone OLGA Track Map
Season 1980-1981 Summaries: [BoM-AU] [JTWC-AU] [JTWC-SIO] [JTWC-SPAC] [JTWC-SH]
<<- Previous TC | BoM 1980-1981 Season | Next TC ->>

click for intensity scale information  Lat/long Grid: Show Hide

 Date Labels: Show Hide

Bureau of Meteorology Tropical Cyclone Data

Name: OLGA
Number: 620 / 198081_13

05 Apr 1981 00:00 UTC to 15 Apr 1981 00:00 UTC

    date/time    lat    long    hPa   cat  kts
1981-04-05 00    7.6    93.9   1002                     
1981-04-05 06    7.7    93.8   1002                     
1981-04-05 12    7.8    93.7   1001                     
1981-04-05 18    7.9    93.6   1001                     
1981-04-06 00    7.9    93.4   1000                     
1981-04-06 06    8.0    93.2    999                     
1981-04-06 12    8.1    93.0    998                     
1981-04-06 18    8.2    92.9    997                     
1981-04-07 00    8.3    92.8    996                     
1981-04-07 06    8.6    92.5    995    1                
1981-04-07 12    8.9    92.2    993    1                
1981-04-07 18    9.1    92.1    991    1                
1981-04-08 00    9.3    92.0    988    1                
1981-04-08 06    9.8    91.8    984    2                
1981-04-08 12   10.2    91.5    980    2                
1981-04-08 18   10.5    91.2    976    2                
1981-04-09 00   10.8    90.9    970    3                
1981-04-09 06   11.2    90.6    964    3                
1981-04-09 12   11.6    90.4    958    3                
1981-04-09 18   12.5    90.1    953    4                
1981-04-10 00   13.2    89.8    946    4                
1981-04-10 06   13.9    89.5    942    4                
1981-04-10 12   14.4    89.2    940    4                
1981-04-10 18   15.5    88.5    945    4                
1981-04-11 00   16.7    87.7    954    4                
1981-04-11 06   17.9    87.1    961    3                
1981-04-11 12   19.2    87.0    969    3                
1981-04-11 18   20.5    87.1    974    2                
1981-04-12 00   22.0    87.1    978    2                
1981-04-12 06   23.6    87.1    981    2                
1981-04-12 12   24.9    88.3    984    2                
1981-04-12 18   25.8    89.3    986    1                
1981-04-13 00   27.7    90.6    988    1                
1981-04-13 06   28.8    93.9    990    1                
1981-04-13 12   29.0    97.8    992    1                
1981-04-13 18   30.3   102.0    993    1                
1981-04-14 00   30.6   105.4    994    1                
1981-04-14 06   30.3   107.6    996                     
1981-04-14 12   29.5   109.8    997                     
1981-04-14 18   28.6   110.7    998                     
1981-04-15 00   27.6   111.0   1000                     
Winds are 10-min average.

Tropical cyclone tracks developed by Michael Bath using data from the Bureau of Meteorology and Google Maps.


[Australian Severe Weather index] [Copyright Notice] [Email Contacts] [Search This Site] [Privacy Policy]
Document: tropical_cyclone_olga.htm Updated: 30 May 2013